createdAt,value
2022-12-09T00:03:06.932Z,8.50
2022-12-09T00:08:08.715Z,8.70
2022-12-09T00:13:10.629Z,9.40
2022-12-09T00:18:12.245Z,8.87
2022-12-09T00:23:14.028Z,8.73
2022-12-09T00:28:15.837Z,8.57
2022-12-09T00:33:17.477Z,8.47
2022-12-09T00:38:19.024Z,8.80
2022-12-09T00:43:20.833Z,9.30
2022-12-09T00:48:22.495Z,8.40
2022-12-09T00:53:24.114Z,9.90
2022-12-09T00:58:26.236Z,9.10
2022-12-09T01:03:28.293Z,8.50
2022-12-09T01:08:29.993Z,9.67
2022-12-09T01:13:31.625Z,8.53
2022-12-09T01:18:33.363Z,9.70
2022-12-09T01:23:35.327Z,8.77
2022-12-09T01:28:39.576Z,8.77
2022-12-09T01:33:42.485Z,9.03
2022-12-09T01:38:44.449Z,8.63
2022-12-09T01:43:46.612Z,8.43
2022-12-09T01:48:49.403Z,8.57
2022-12-09T01:53:51.906Z,9.10
2022-12-09T01:58:54.552Z,10.50
2022-12-09T02:03:56.909Z,15.50
2022-12-09T02:08:59.526Z,14.43
2022-12-09T02:14:09.567Z,10.57
2022-12-09T02:19:23.308Z,11.20
2022-12-09T02:24:46.497Z,10.07
2022-12-09T02:29:48.381Z,8.87
2022-12-09T02:34:55.918Z,9.97
2022-12-09T02:40:11.875Z,9.57
2022-12-09T02:45:17.011Z,10.57
2022-12-09T02:50:26.053Z,9.83
2022-12-09T02:55:29.188Z,10.67
2022-12-09T03:00:31.230Z,10.53
2022-12-09T03:05:34.098Z,11.13
2022-12-09T03:10:53.633Z,10.73
2022-12-09T03:16:00.316Z,10.57
2022-12-09T03:21:03.975Z,10.87
2022-12-09T03:26:07.391Z,10.20
2022-12-09T03:31:14.899Z,11.30
2022-12-09T03:36:17.538Z,9.80
2022-12-09T03:41:28.979Z,11.47
2022-12-09T03:46:30.837Z,11.10
2022-12-09T03:51:38.209Z,9.97
2022-12-09T03:56:43.109Z,10.87
2022-12-09T04:01:46.410Z,10.27
2022-12-09T04:06:51.124Z,10.40
2022-12-09T04:11:53.077Z,10.20
2022-12-09T04:16:54.752Z,10.57
2022-12-09T04:21:56.605Z,10.17
2022-12-09T04:26:58.637Z,10.80
2022-12-09T04:32:00.563Z,11.03
2022-12-09T04:37:02.386Z,9.97
2022-12-09T04:42:04.044Z,11.20
2022-12-09T04:47:05.904Z,10.20
2022-12-09T04:52:07.987Z,9.53
2022-12-09T04:57:09.857Z,9.40
2022-12-09T05:02:12.022Z,8.83
2022-12-09T05:07:13.986Z,9.27
2022-12-09T05:12:15.827Z,9.13
2022-12-09T05:17:18.928Z,8.80
2022-12-09T05:22:20.657Z,8.93
2022-12-09T05:27:22.409Z,9.83
2022-12-09T05:32:24.476Z,10.90
2022-12-09T05:37:26.271Z,9.00
2022-12-09T05:42:28.238Z,9.60
2022-12-09T05:47:30.081Z,8.20
2022-12-09T05:52:31.806Z,9.73
2022-12-09T05:57:34.398Z,8.77
2022-12-09T06:02:36.463Z,10.53
2022-12-09T06:07:38.547Z,10.10
2022-12-09T06:12:40.592Z,10.90
2022-12-09T06:17:42.565Z,11.33
2022-12-09T06:22:44.671Z,11.13
2022-12-09T06:27:46.763Z,11.10
2022-12-09T06:32:48.526Z,9.53
2022-12-09T06:37:54.153Z,11.03
2022-12-09T06:42:56.037Z,8.63
2022-12-09T06:47:58.095Z,9.53
2022-12-09T06:53:00.218Z,9.63
2022-12-09T06:58:01.897Z,10.13
2022-12-09T07:03:03.680Z,11.20
2022-12-09T07:08:06.078Z,10.50
2022-12-09T07:13:07.903Z,11.87
2022-12-09T07:18:09.540Z,9.13
2022-12-09T07:23:13.728Z,17.50
2022-12-09T07:28:15.678Z,11.43
2022-12-09T07:33:17.372Z,12.47
2022-12-09T07:38:19.455Z,13.30
2022-12-09T07:43:21.095Z,13.23
2022-12-09T07:48:23.171Z,13.27
2022-12-09T07:53:24.883Z,12.43
2022-12-09T07:58:26.473Z,11.90
2022-12-09T08:03:28.325Z,14.27
2022-12-09T08:08:31.346Z,12.83
2022-12-09T08:13:33.513Z,12.23
2022-12-09T08:18:36.638Z,13.50
2022-12-09T08:23:39.498Z,16.57
2022-12-09T08:28:41.341Z,14.40
2022-12-09T08:33:43.392Z,14.47
2022-12-09T08:38:45.582Z,17.13
2022-12-09T08:43:47.800Z,13.13
2022-12-09T08:48:50.367Z,13.60
2022-12-09T08:53:52.340Z,13.77
2022-12-09T08:58:54.883Z,13.43
2022-12-09T09:03:56.740Z,15.33
2022-12-09T09:08:59.277Z,14.63
2022-12-09T09:14:03.509Z,13.10
2022-12-09T09:19:06.104Z,13.33
2022-12-09T09:24:12.874Z,13.00
2022-12-09T09:29:16.704Z,11.73
2022-12-09T09:34:18.961Z,11.90
2022-12-09T09:39:20.893Z,13.33
2022-12-09T09:44:28.080Z,13.23
2022-12-09T09:49:36.258Z,13.50
2022-12-09T09:54:38.075Z,14.30
2022-12-09T09:59:52.332Z,18.37
2022-12-09T10:05:08.076Z,16.50
2022-12-09T10:10:13.402Z,17.53
2022-12-09T10:15:20.538Z,16.90
2022-12-09T10:20:30.634Z,17.80
2022-12-09T10:25:35.553Z,16.33
2022-12-09T10:30:44.106Z,18.20
2022-12-09T10:35:47.150Z,17.70
2022-12-09T10:41:01.367Z,18.20
2022-12-09T10:46:21.290Z,18.93
2022-12-09T10:51:32.763Z,18.20
2022-12-09T10:56:36.118Z,19.57
2022-12-09T11:01:57.637Z,19.67
2022-12-09T11:07:05.378Z,18.07
2022-12-09T11:12:41.563Z,17.43
2022-12-09T11:17:56.257Z,16.00
2022-12-09T11:23:06.429Z,18.83
2022-12-09T11:28:08.132Z,16.33
2022-12-09T11:33:16.518Z,18.20
2022-12-09T11:38:30.410Z,15.73
2022-12-09T11:43:35.346Z,17.53
2022-12-09T11:48:43.271Z,18.37
2022-12-09T11:53:45.772Z,15.70
2022-12-09T11:58:56.323Z,18.03
2022-12-09T12:04:05.008Z,16.93
2022-12-09T12:09:18.845Z,17.43
2022-12-09T12:14:25.384Z,16.70
2022-12-09T12:19:34.942Z,16.10
2022-12-09T12:25:09.904Z,14.50
2022-12-09T12:30:24.030Z,14.77
2022-12-09T12:36:01.583Z,17.00
2022-12-09T12:41:09.142Z,17.33
2022-12-09T12:46:33.960Z,14.60
2022-12-09T12:51:52.657Z,15.13
2022-12-09T12:57:09.387Z,17.27
2022-12-09T13:02:33.210Z,15.23
2022-12-09T13:07:41.644Z,17.20
2022-12-09T13:13:01.525Z,16.13
2022-12-09T13:18:12.035Z,17.37
2022-12-09T13:23:19.739Z,17.80
2022-12-09T13:28:37.403Z,17.20
2022-12-09T13:33:44.601Z,17.57
2022-12-09T13:38:46.197Z,17.23
2022-12-09T13:43:47.856Z,17.13
2022-12-09T13:48:49.990Z,17.53
2022-12-09T13:54:00.568Z,18.70
2022-12-09T13:59:31.253Z,14.03
2022-12-09T14:04:42.763Z,12.83
2022-12-09T14:09:44.269Z,11.73
2022-12-09T14:14:49.668Z,12.47
2022-12-09T14:19:51.206Z,13.17
2022-12-09T14:24:54.156Z,11.97
2022-12-09T14:30:00.965Z,13.00
2022-12-09T14:35:10.311Z,12.60
2022-12-09T14:40:14.689Z,12.63
2022-12-09T14:45:30.960Z,13.80
2022-12-09T14:50:32.515Z,13.70
2022-12-09T14:55:38.781Z,12.60
2022-12-09T15:00:41.566Z,12.50
2022-12-09T15:06:20.251Z,14.77
2022-12-09T15:11:31.519Z,13.83
2022-12-09T15:16:33.250Z,13.20
2022-12-09T15:21:34.852Z,13.00
2022-12-09T15:26:36.405Z,15.20
2022-12-09T15:31:47.612Z,13.73
2022-12-09T15:36:52.462Z,13.97
2022-12-09T15:42:07.977Z,13.93
2022-12-09T15:47:19.145Z,16.83
2022-12-09T15:52:23.651Z,16.10
2022-12-09T15:57:28.169Z,15.77
2022-12-09T16:02:32.925Z,15.00
2022-12-09T16:07:34.749Z,16.00
2022-12-09T16:12:37.258Z,16.17
2022-12-09T16:17:52.520Z,15.23
2022-12-09T16:22:54.107Z,17.37
2022-12-09T16:28:05.957Z,15.27
2022-12-09T16:33:20.639Z,15.37
2022-12-09T16:38:22.741Z,15.93
2022-12-09T16:43:25.560Z,16.83
2022-12-09T16:48:29.289Z,16.80
2022-12-09T16:53:43.250Z,18.33
2022-12-09T16:58:44.872Z,20.87
2022-12-09T17:03:53.825Z,18.53
2022-12-09T17:08:55.403Z,17.50
2022-12-09T17:13:56.998Z,17.77
2022-12-09T17:18:58.567Z,20.60
2022-12-09T17:24:00.127Z,18.50
2022-12-09T17:29:02.244Z,17.80
2022-12-09T17:34:04.500Z,14.80
2022-12-09T17:39:07.290Z,16.67
2022-12-09T17:44:09.416Z,14.90
2022-12-09T17:49:10.967Z,16.93
2022-12-09T17:54:12.689Z,15.30
2022-12-09T17:59:15.775Z,16.20
2022-12-09T18:04:17.436Z,15.80
2022-12-09T18:09:19.766Z,15.03
2022-12-09T18:14:21.394Z,16.57
2022-12-09T18:19:24.912Z,15.07
2022-12-09T18:24:27.137Z,14.47
2022-12-09T18:29:29.164Z,15.40
2022-12-09T18:34:32.832Z,13.37
2022-12-09T18:39:34.448Z,15.10
2022-12-09T18:44:36.085Z,15.33
2022-12-09T18:49:37.659Z,14.97
2022-12-09T18:54:39.433Z,13.77
2022-12-09T18:59:41.005Z,15.10
2022-12-09T19:04:42.662Z,12.73
2022-12-09T19:09:44.268Z,13.50
2022-12-09T19:14:45.825Z,14.43
2022-12-09T19:19:48.877Z,14.20
2022-12-09T19:24:50.493Z,13.87
2022-12-09T19:29:52.074Z,14.13
2022-12-09T19:34:53.638Z,13.60
2022-12-09T19:39:55.223Z,14.57
2022-12-09T19:45:01.986Z,15.77
2022-12-09T19:50:05.456Z,14.33
2022-12-09T19:55:08.531Z,14.27
2022-12-09T20:00:11.286Z,14.13
2022-12-09T20:05:12.893Z,16.07
2022-12-09T20:10:14.941Z,15.93
2022-12-09T20:15:16.615Z,17.00
2022-12-09T20:20:18.241Z,17.33
2022-12-09T20:25:19.877Z,17.37
2022-12-09T20:30:21.523Z,13.97
2022-12-09T20:35:23.490Z,15.87
2022-12-09T20:40:25.067Z,16.97
2022-12-09T20:45:26.655Z,16.60
2022-12-09T20:50:31.116Z,16.60
2022-12-09T20:55:35.184Z,18.47
2022-12-09T21:00:36.748Z,17.23
2022-12-09T21:05:38.381Z,17.10
2022-12-09T21:10:39.924Z,18.50
2022-12-09T21:15:41.481Z,19.97
2022-12-09T21:20:44.429Z,20.43
2022-12-09T21:25:46.239Z,21.50
2022-12-09T21:30:47.933Z,24.63
2022-12-09T21:35:49.489Z,24.70
2022-12-09T21:40:51.134Z,26.17
2022-12-09T21:45:52.738Z,25.30
2022-12-09T21:50:58.232Z,29.10
2022-12-09T21:56:08.946Z,25.93
2022-12-09T22:01:13.169Z,30.67
2022-12-09T22:06:15.637Z,25.90
2022-12-09T22:11:18.779Z,29.50
2022-12-09T22:16:22.956Z,29.37
2022-12-09T22:21:27.309Z,33.23
2022-12-09T22:26:30.450Z,29.50
2022-12-09T22:31:35.373Z,31.37
2022-12-09T22:36:37.218Z,32.73
2022-12-09T22:41:38.923Z,32.90
2022-12-09T22:46:42.163Z,32.83
2022-12-09T22:51:44.404Z,33.03
2022-12-09T22:56:46.051Z,34.17
2022-12-09T23:01:50.000Z,32.37
2022-12-09T23:06:51.649Z,35.17
2022-12-09T23:11:53.911Z,30.53
2022-12-09T23:16:55.469Z,32.53
2022-12-09T23:21:57.122Z,33.07
2022-12-09T23:26:59.143Z,30.53
2022-12-09T23:32:00.979Z,31.87
2022-12-09T23:37:03.643Z,30.17
2022-12-09T23:42:05.523Z,34.20
2022-12-09T23:47:07.226Z,32.97
2022-12-09T23:52:10.424Z,33.40
2022-12-09T23:57:11.977Z,29.63
